createdAt,value
2022-09-03T00:00:56.420Z,101076.91
2022-09-03T00:06:12.210Z,101073.28
2022-09-03T00:11:22.129Z,101075.06
2022-09-03T00:16:30.709Z,101076.78
2022-09-03T00:21:42.348Z,101070.56
2022-09-03T00:26:49.042Z,101066.97
2022-09-03T00:31:54.721Z,101066.88
2022-09-03T00:36:59.768Z,101077.47
2022-09-03T00:42:19.075Z,101072.91
2022-09-03T00:47:28.661Z,101074.63
2022-09-03T00:52:46.094Z,101072.78
2022-09-03T00:58:03.518Z,101067.41
2022-09-03T01:03:10.910Z,101073.53
2022-09-03T01:08:39.813Z,101077.91
2022-09-03T01:13:51.442Z,101076.06
2022-09-03T01:19:05.224Z,101078.69
2022-09-03T01:24:33.820Z,101078.56
2022-09-03T01:29:44.862Z,101083.81
2022-09-03T01:34:58.856Z,101077.59
2022-09-03T01:40:12.012Z,101075.72
2022-09-03T01:45:31.587Z,101081.81
2022-09-03T01:50:45.508Z,101073.78
2022-09-03T01:56:06.124Z,101072.03
2022-09-03T02:01:18.119Z,101060.41
2022-09-03T02:06:21.931Z,101074.50
2022-09-03T02:11:25.446Z,101074.38
2022-09-03T02:16:34.458Z,101069.88
2022-09-03T02:21:40.235Z,101065.44
2022-09-03T02:26:43.306Z,101066.28
2022-09-03T02:31:47.590Z,101074.16
2022-09-03T02:36:50.599Z,101073.19
2022-09-03T02:41:58.143Z,101055.50
2022-09-03T02:47:04.458Z,101062.59
2022-09-03T02:52:09.768Z,101062.53
2022-09-03T02:57:15.751Z,101064.31
2022-09-03T03:02:20.122Z,101051.88
2022-09-03T03:07:23.302Z,101046.50
2022-09-03T03:12:26.491Z,101051.84
2022-09-03T03:17:31.782Z,101053.56
2022-09-03T03:22:34.781Z,101052.69
2022-09-03T03:27:42.410Z,101053.56
2022-09-03T03:32:47.356Z,101063.28
2022-09-03T03:37:50.299Z,101052.69
2022-09-03T03:42:53.619Z,101060.66
2022-09-03T03:48:00.305Z,101054.59
2022-09-03T03:53:03.266Z,101052.03
2022-09-03T03:58:06.197Z,101049.34
2022-09-03T04:03:10.437Z,101049.38
2022-09-03T04:08:13.336Z,101051.22
2022-09-03T04:13:16.229Z,101049.47
2022-09-03T04:18:20.706Z,101055.66
2022-09-03T04:23:23.700Z,101048.63
2022-09-03T04:28:26.776Z,101048.56
2022-09-03T04:33:31.176Z,101037.97
2022-09-03T04:38:34.479Z,101045.00
2022-09-03T04:43:37.940Z,101039.66
2022-09-03T04:48:42.464Z,101044.97
2022-09-03T04:53:47.064Z,101053.78
2022-09-03T04:58:51.154Z,101048.44
2022-09-03T05:03:56.592Z,101044.03
2022-09-03T05:09:00.029Z,101054.63
2022-09-03T05:14:03.322Z,101049.28
2022-09-03T05:19:07.993Z,101055.53
2022-09-03T05:24:11.956Z,101048.53
2022-09-03T05:29:16.112Z,101054.72
2022-09-03T05:34:20.508Z,101046.75
2022-09-03T05:39:23.462Z,101048.53
2022-09-03T05:44:26.402Z,101055.66
2022-09-03T05:49:30.866Z,101057.47
2022-09-03T05:54:33.873Z,101056.63
2022-09-03T05:59:36.871Z,101057.59
2022-09-03T06:04:41.174Z,101056.75
2022-09-03T06:09:44.229Z,101060.34
2022-09-03T06:14:47.482Z,101062.25
2022-09-03T06:19:51.864Z,101061.44
2022-09-03T06:24:54.794Z,101056.25
2022-09-03T06:29:59.439Z,101066.94
2022-09-03T06:35:03.783Z,101062.56
2022-09-03T06:40:12.546Z,101073.22
2022-09-03T06:45:16.825Z,101080.41
2022-09-03T06:50:24.317Z,101075.16
2022-09-03T06:55:27.518Z,101071.69
2022-09-03T07:00:31.809Z,101068.19
2022-09-03T07:05:36.474Z,101065.59
2022-09-03T07:10:39.494Z,101066.59
2022-09-03T07:15:42.614Z,101072.03
2022-09-03T07:20:46.947Z,101079.22
2022-09-03T07:25:54.726Z,101074.03
2022-09-03T07:31:03.856Z,101069.69
2022-09-03T07:36:10.137Z,101083.03
2022-09-03T07:41:26.834Z,101073.41
2022-09-03T07:46:33.369Z,101077.09
2022-09-03T07:51:39.319Z,101083.44
2022-09-03T07:56:42.380Z,101083.50
2022-09-03T08:01:45.451Z,101084.44
2022-09-03T08:06:50.074Z,101080.91
2022-09-03T08:11:53.050Z,101088.94
2022-09-03T08:16:56.345Z,101091.59
2022-09-03T08:22:01.568Z,101092.50
2022-09-03T08:27:05.214Z,101100.41
2022-09-03T08:32:08.357Z,101093.22
2022-09-03T08:37:13.302Z,101097.59
2022-09-03T08:42:41.067Z,101099.28
2022-09-03T08:47:48.339Z,101108.84
2022-09-03T08:52:55.970Z,101100.38
2022-09-03T08:58:05.365Z,101091.09
2022-09-03T09:03:32.352Z,101091.22
2022-09-03T09:08:47.414Z,101090.47
2022-09-03T09:13:57.483Z,101091.38
2022-09-03T09:19:12.357Z,101093.22
2022-09-03T09:24:23.288Z,101091.69
2022-09-03T09:29:34.542Z,101097.91
2022-09-03T09:34:38.723Z,101100.41
2022-09-03T09:39:55.870Z,101088.16
2022-09-03T09:45:11.312Z,101092.53
2022-09-03T09:50:24.821Z,101089.94
2022-09-03T09:55:30.939Z,101101.03
2022-09-03T10:00:37.534Z,101105.56
2022-09-03T10:05:41.563Z,101099.41
2022-09-03T10:10:50.116Z,101089.00
2022-09-03T10:15:59.390Z,101084.03
2022-09-03T10:21:07.876Z,101088.63
2022-09-03T10:26:15.242Z,101084.19
2022-09-03T10:31:42.054Z,101072.91
2022-09-03T10:36:54.636Z,101067.41
2022-09-03T10:42:13.339Z,101072.94
2022-09-03T10:47:29.542Z,101072.72
2022-09-03T10:52:43.271Z,101068.63
2022-09-03T10:57:56.145Z,101069.06
2022-09-03T11:03:40.144Z,101060.38
2022-09-03T11:08:49.642Z,101062.06
2022-09-03T11:13:59.974Z,101062.03
2022-09-03T11:19:07.187Z,101061.56
2022-09-03T11:24:15.128Z,101061.44
2022-09-03T11:29:26.650Z,101061.09
2022-09-03T11:34:33.234Z,101054.56
2022-09-03T11:39:40.002Z,101056.88
2022-09-03T11:44:51.634Z,101059.19
2022-09-03T11:50:07.990Z,101049.91
2022-09-03T11:55:10.974Z,101052.03
2022-09-03T12:00:21.771Z,101054.03
2022-09-03T12:05:39.026Z,101055.38
2022-09-03T12:10:52.466Z,101051.78
2022-09-03T12:16:17.644Z,101055.00
2022-09-03T12:21:21.762Z,101053.34
2022-09-03T12:26:27.860Z,101058.22
2022-09-03T12:31:38.110Z,101056.09
2022-09-03T12:36:46.040Z,101057.50
2022-09-03T12:41:59.193Z,101057.28
2022-09-03T12:52:32.089Z,101049.59
2022-09-03T12:57:39.470Z,101049.31
2022-09-03T13:02:50.485Z,101046.09
2022-09-03T13:07:57.143Z,101043.31
2022-09-03T13:13:03.372Z,101035.16
2022-09-03T13:18:26.661Z,101038.72
2022-09-03T13:23:38.937Z,101026.34
2022-09-03T13:28:58.636Z,101017.84
2022-09-03T13:34:09.441Z,101020.41
2022-09-03T13:39:25.635Z,101019.94
2022-09-03T13:44:40.789Z,101022.97
2022-09-03T13:50:09.382Z,101019.53
2022-09-03T13:55:19.681Z,101017.94
2022-09-03T14:00:32.515Z,101020.00
2022-09-03T14:05:46.797Z,101020.25
2022-09-03T14:11:21.441Z,101023.78
2022-09-03T14:16:35.612Z,101026.81
2022-09-03T14:21:46.391Z,101029.69
2022-09-03T14:26:55.303Z,101032.53
2022-09-03T14:32:29.561Z,101035.28
2022-09-03T14:38:11.335Z,101028.47
2022-09-03T14:43:32.333Z,101029.09
2022-09-03T14:48:51.167Z,101031.47
2022-09-03T14:54:50.149Z,101039.38
2022-09-03T15:00:08.156Z,101028.88
2022-09-03T15:05:19.138Z,101033.00
2022-09-03T15:10:33.103Z,101034.53
2022-09-03T15:16:01.407Z,101026.03
2022-09-03T15:21:15.524Z,101023.13
2022-09-03T15:26:36.737Z,101031.06
2022-09-03T15:31:52.475Z,101030.06
2022-09-03T15:36:58.614Z,101038.75
2022-09-03T15:42:07.636Z,101036.59
2022-09-03T15:47:21.430Z,101038.31
2022-09-03T15:52:33.725Z,101032.47
2022-09-03T15:57:46.064Z,101037.41
2022-09-03T16:02:57.915Z,101039.47
2022-09-03T16:08:13.910Z,101027.28
2022-09-03T16:13:33.997Z,101034.44
2022-09-03T16:18:45.596Z,101026.94
2022-09-03T16:23:59.417Z,101037.66
2022-09-03T16:29:09.367Z,101037.69
2022-09-03T16:34:23.170Z,101034.47
2022-09-03T16:39:42.710Z,101044.19
2022-09-03T16:44:58.396Z,101030.94
2022-09-03T16:50:14.803Z,101039.81
2022-09-03T16:55:24.518Z,101036.69
2022-09-03T17:00:41.015Z,101047.41
2022-09-03T17:06:17.674Z,101054.16
2022-09-03T17:11:39.336Z,101048.69
2022-09-03T17:16:53.454Z,101055.59
2022-09-03T17:22:14.686Z,101047.56
2022-09-03T17:27:32.499Z,101054.25
2022-09-03T17:33:04.586Z,101056.22
2022-09-03T17:38:22.721Z,101058.66
2022-09-03T17:43:33.070Z,101070.00
2022-09-03T17:48:51.631Z,101072.25
2022-09-03T17:54:04.960Z,101078.84
2022-09-03T17:59:15.813Z,101082.84
2022-09-03T18:04:32.982Z,101093.78
2022-09-03T18:09:47.433Z,101102.03
2022-09-03T18:14:57.059Z,101106.53
2022-09-03T18:20:22.772Z,101115.53
2022-09-03T18:25:51.469Z,101119.94
2022-09-03T18:31:12.180Z,101126.03
2022-09-03T18:36:33.056Z,101125.91
2022-09-03T18:42:12.008Z,101132.78
2022-09-03T18:48:01.435Z,101141.44
2022-09-03T18:53:30.872Z,101143.75
2022-09-03T18:59:03.456Z,101157.63
2022-09-03T19:04:34.147Z,101157.13
2022-09-03T19:10:09.459Z,101166.41
2022-09-03T19:15:38.845Z,101172.94
2022-09-03T19:21:09.075Z,101172.28
2022-09-03T19:26:38.814Z,101169.88
2022-09-03T19:32:06.047Z,101174.66
2022-09-03T19:37:34.190Z,101192.78
2022-09-03T19:43:12.412Z,101174.28
2022-09-03T19:48:45.421Z,101189.94
2022-09-03T19:54:07.222Z,101202.66
2022-09-03T19:59:31.805Z,101194.06
2022-09-03T20:04:58.214Z,101200.56
2022-09-03T20:10:23.525Z,101205.25
2022-09-03T20:15:39.378Z,101205.50
2022-09-03T20:20:51.745Z,101217.28
2022-09-03T20:26:13.303Z,101210.22
2022-09-03T20:31:23.128Z,101214.81
2022-09-03T20:36:39.898Z,101230.94
2022-09-03T20:41:51.753Z,101240.06
2022-09-03T20:47:12.292Z,101231.25
2022-09-03T20:52:21.116Z,101234.88
2022-09-03T20:57:37.927Z,101250.00
2022-09-03T21:03:10.719Z,101250.88
2022-09-03T21:08:44.128Z,101253.59
2022-09-03T21:13:55.605Z,101256.31
2022-09-03T21:19:06.829Z,101254.56
2022-09-03T21:24:19.271Z,101253.75
2022-09-03T21:29:26.841Z,101260.03
2022-09-03T21:34:32.864Z,101253.88
2022-09-03T21:39:44.232Z,101264.66
2022-09-03T21:44:57.369Z,101261.19
2022-09-03T21:50:14.374Z,101268.38
2022-09-03T21:55:24.029Z,101268.41
2022-09-03T22:00:32.500Z,101272.88
2022-09-03T22:05:47.393Z,101276.50
2022-09-03T22:10:59.975Z,101277.44
2022-09-03T22:16:13.717Z,101277.47
2022-09-03T22:21:23.607Z,101280.16
2022-09-03T22:26:37.385Z,101278.41
2022-09-03T22:31:53.697Z,101285.50
2022-09-03T22:37:02.573Z,101288.19
2022-09-03T22:42:23.638Z,101281.97
2022-09-03T22:47:37.474Z,101286.41
2022-09-03T22:52:45.366Z,101284.63
2022-09-03T22:57:57.323Z,101297.97
2022-09-03T23:03:08.474Z,101304.19
2022-09-03T23:08:15.413Z,101310.41
2022-09-03T23:13:23.277Z,101317.50
2022-09-03T23:18:32.356Z,101317.50
2022-09-03T23:23:38.967Z,101315.69
2022-09-03T23:28:48.616Z,101312.13
2022-09-03T23:33:53.914Z,101314.78
2022-09-03T23:39:04.505Z,101322.78
2022-09-03T23:44:24.654Z,101322.75
2022-09-03T23:49:50.411Z,101324.47
2022-09-03T23:55:04.341Z,101326.22
